sensor_id;sensor_type;location;lat;lon;timestamp;P1;durP1;ratioP1;P2;durP2;ratioP2
22046;SDS011;11187;49.412;20.956;2023-04-01T00:01:21;28.00;;;25.15;;
22046;SDS011;11187;49.412;20.956;2023-04-01T00:04:08;27.05;;;24.65;;
22046;SDS011;11187;49.412;20.956;2023-04-01T00:06:41;28.85;;;25.95;;
22046;SDS011;11187;49.412;20.956;2023-04-01T00:09:28;26.88;;;24.25;;
22046;SDS011;11187;49.412;20.956;2023-04-01T00:12:01;28.85;;;25.88;;
22046;SDS011;11187;49.412;20.956;2023-04-01T00:14:49;28.27;;;25.67;;
22046;SDS011;11187;49.412;20.956;2023-04-01T00:17:22;26.67;;;24.27;;
22046;SDS011;11187;49.412;20.956;2023-04-01T00:20:16;27.50;;;25.02;;
22046;SDS011;11187;49.412;20.956;2023-04-01T00:23:10;28.23;;;25.33;;
22046;SDS011;11187;49.412;20.956;2023-04-01T00:25:43;27.98;;;25.35;;
22046;SDS011;11187;49.412;20.956;2023-04-01T00:28:38;27.20;;;24.38;;
22046;SDS011;11187;49.412;20.956;2023-04-01T00:31:12;28.23;;;25.58;;
22046;SDS011;11187;49.412;20.956;2023-04-01T00:34:06;29.55;;;26.52;;
22046;SDS011;11187;49.412;20.956;2023-04-01T00:36:39;29.48;;;26.67;;
22046;SDS011;11187;49.412;20.956;2023-04-01T00:39:28;29.92;;;27.33;;
22046;SDS011;11187;49.412;20.956;2023-04-01T00:42:03;30.92;;;28.13;;
22046;SDS011;11187;49.412;20.956;2023-04-01T00:44:50;29.08;;;26.33;;
22046;SDS011;11187;49.412;20.956;2023-04-01T00:47:45;27.75;;;25.30;;
22046;SDS011;11187;49.412;20.956;2023-04-01T00:50:19;29.63;;;27.00;;
22046;SDS011;11187;49.412;20.956;2023-04-01T00:53:14;28.88;;;26.25;;
22046;SDS011;11187;49.412;20.956;2023-04-01T00:56:12;29.83;;;27.08;;
22046;SDS011;11187;49.412;20.956;2023-04-01T00:58:54;30.27;;;27.25;;
22046;SDS011;11187;49.412;20.956;2023-04-01T01:01:54;30.00;;;27.10;;
22046;SDS011;11187;49.412;20.956;2023-04-01T01:04:48;30.55;;;27.63;;
22046;SDS011;11187;49.412;20.956;2023-04-01T01:10:55;28.00;;;25.60;;
22046;SDS011;11187;49.412;20.956;2023-04-01T01:13:50;25.65;;;23.45;;
22046;SDS011;11187;49.412;20.956;2023-04-01T01:16:44;26.60;;;24.30;;
22046;SDS011;11187;49.412;20.956;2023-04-01T01:32:59;23.42;;;21.42;;
22046;SDS011;11187;49.412;20.956;2023-04-01T01:36:04;25.25;;;23.25;;
22046;SDS011;11187;49.412;20.956;2023-04-01T01:38:44;25.00;;;22.83;;
22046;SDS011;11187;49.412;20.956;2023-04-01T01:41:33;24.90;;;22.73;;
22046;SDS011;11187;49.412;20.956;2023-04-01T01:44:08;25.27;;;23.10;;
22046;SDS011;11187;49.412;20.956;2023-04-01T01:46:59;23.92;;;21.77;;
22046;SDS011;11187;49.412;20.956;2023-04-01T01:49:54;25.23;;;23.02;;
22046;SDS011;11187;49.412;20.956;2023-04-01T01:52:28;25.75;;;23.75;;
22046;SDS011;11187;49.412;20.956;2023-04-01T02:01:15;24.27;;;22.23;;
22046;SDS011;11187;49.412;20.956;2023-04-01T02:03:53;23.58;;;21.73;;
22046;SDS011;11187;49.412;20.956;2023-04-01T02:06:43;24.13;;;22.13;;
22046;SDS011;11187;49.412;20.956;2023-04-01T02:09:22;24.05;;;22.10;;
22046;SDS011;11187;49.412;20.956;2023-04-01T02:12:09;24.73;;;22.42;;
22046;SDS011;11187;49.412;20.956;2023-04-01T02:14:47;25.13;;;23.10;;
22046;SDS011;11187;49.412;20.956;2023-04-01T02:17:41;24.83;;;22.73;;
22046;SDS011;11187;49.412;20.956;2023-04-01T02:20:17;25.05;;;22.65;;
22046;SDS011;11187;49.412;20.956;2023-04-01T02:23:08;25.98;;;23.77;;
22046;SDS011;11187;49.412;20.956;2023-04-01T02:25:43;26.27;;;23.38;;
22046;SDS011;11187;49.412;20.956;2023-04-01T02:28:38;28.00;;;25.35;;
22046;SDS011;11187;49.412;20.956;2023-04-01T02:31:34;29.13;;;26.67;;
22046;SDS011;11187;49.412;20.956;2023-04-01T02:34:07;28.92;;;26.20;;
22046;SDS011;11187;49.412;20.956;2023-04-01T02:36:55;29.13;;;26.52;;
22046;SDS011;11187;49.412;20.956;2023-04-01T02:39:29;29.23;;;26.35;;
22046;SDS011;11187;49.412;20.956;2023-04-01T02:42:16;29.58;;;26.67;;
22046;SDS011;11187;49.412;20.956;2023-04-01T02:44:49;29.77;;;27.08;;
22046;SDS011;11187;49.412;20.956;2023-04-01T02:47:36;29.85;;;27.08;;
22046;SDS011;11187;49.412;20.956;2023-04-01T02:50:10;30.65;;;27.55;;
22046;SDS011;11187;49.412;20.956;2023-04-01T02:53:03;27.77;;;24.95;;
22046;SDS011;11187;49.412;20.956;2023-04-01T02:55:38;28.40;;;25.63;;
22046;SDS011;11187;49.412;20.956;2023-04-01T02:58:25;31.27;;;26.17;;
22046;SDS011;11187;49.412;20.956;2023-04-01T03:00:58;29.88;;;26.77;;
22046;SDS011;11187;49.412;20.956;2023-04-01T03:03:45;29.30;;;25.85;;
22046;SDS011;11187;49.412;20.956;2023-04-01T03:06:18;29.08;;;24.50;;
22046;SDS011;11187;49.412;20.956;2023-04-01T03:09:12;26.95;;;24.45;;
22046;SDS011;11187;49.412;20.956;2023-04-01T03:11:45;27.63;;;24.92;;
22046;SDS011;11187;49.412;20.956;2023-04-01T03:14:32;43.47;;;24.63;;
22046;SDS011;11187;49.412;20.956;2023-04-01T03:17:05;26.65;;;23.70;;
22046;SDS011;11187;49.412;20.956;2023-04-01T03:19:53;25.42;;;22.90;;
22046;SDS011;11187;49.412;20.956;2023-04-01T03:22:27;29.85;;;23.80;;
22046;SDS011;11187;49.412;20.956;2023-04-01T03:25:14;27.15;;;24.38;;
22046;SDS011;11187;49.412;20.956;2023-04-01T03:27:47;28.42;;;24.92;;
22046;SDS011;11187;49.412;20.956;2023-04-01T03:30:34;29.13;;;26.23;;
22046;SDS011;11187;49.412;20.956;2023-04-01T03:33:08;30.23;;;25.65;;
22046;SDS011;11187;49.412;20.956;2023-04-01T03:35:56;30.55;;;27.65;;
22046;SDS011;11187;49.412;20.956;2023-04-01T03:38:33;31.38;;;27.55;;
22046;SDS011;11187;49.412;20.956;2023-04-01T03:41:27;30.45;;;26.48;;
22046;SDS011;11187;49.412;20.956;2023-04-01T03:44:00;30.58;;;27.33;;
22046;SDS011;11187;49.412;20.956;2023-04-01T03:46:47;29.80;;;26.30;;
22046;SDS011;11187;49.412;20.956;2023-04-01T03:49:20;28.52;;;25.60;;
22046;SDS011;11187;49.412;20.956;2023-04-01T03:52:14;35.45;;;26.98;;
22046;SDS011;11187;49.412;20.956;2023-04-01T03:55:08;44.70;;;27.13;;
22046;SDS011;11187;49.412;20.956;2023-04-01T03:58:04;44.53;;;25.73;;
22046;SDS011;11187;49.412;20.956;2023-04-01T04:00:37;30.35;;;25.48;;
22046;SDS011;11187;49.412;20.956;2023-04-01T04:03:31;27.08;;;23.55;;
22046;SDS011;11187;49.412;20.956;2023-04-01T04:06:25;28.70;;;25.90;;
22046;SDS011;11187;49.412;20.956;2023-04-01T04:09:20;28.92;;;26.20;;
22046;SDS011;11187;49.412;20.956;2023-04-01T04:11:53;37.70;;;24.73;;
22046;SDS011;11187;49.412;20.956;2023-04-01T04:14:40;29.15;;;22.90;;
22046;SDS011;11187;49.412;20.956;2023-04-01T04:17:13;34.58;;;23.70;;
22046;SDS011;11187;49.412;20.956;2023-04-01T04:20:00;35.78;;;24.80;;
22046;SDS011;11187;49.412;20.956;2023-04-01T04:22:33;29.35;;;23.48;;
22046;SDS011;11187;49.412;20.956;2023-04-01T04:25:20;25.17;;;22.83;;
22046;SDS011;11187;49.412;20.956;2023-04-01T04:27:53;22.20;;;20.33;;
22046;SDS011;11187;49.412;20.956;2023-04-01T04:30:47;23.25;;;21.25;;
22046;SDS011;11187;49.412;20.956;2023-04-01T04:33:41;23.15;;;21.00;;
22046;SDS011;11187;49.412;20.956;2023-04-01T04:36:14;23.00;;;21.00;;
22046;SDS011;11187;49.412;20.956;2023-04-01T04:39:01;23.52;;;21.52;;
22046;SDS011;11187;49.412;20.956;2023-04-01T04:41:36;23.90;;;21.67;;
22046;SDS011;11187;49.412;20.956;2023-04-01T04:44:24;24.60;;;22.38;;
22046;SDS011;11187;49.412;20.956;2023-04-01T04:46:57;23.67;;;21.58;;
22046;SDS011;11187;49.412;20.956;2023-04-01T04:49:51;22.38;;;20.40;;
22046;SDS011;11187;49.412;20.956;2023-04-01T04:52:45;23.60;;;21.50;;
22046;SDS011;11187;49.412;20.956;2023-04-01T04:55:18;23.88;;;21.70;;
22046;SDS011;11187;49.412;20.956;2023-04-01T04:58:12;23.50;;;21.40;;
22046;SDS011;11187;49.412;20.956;2023-04-01T05:01:07;23.02;;;21.15;;
22046;SDS011;11187;49.412;20.956;2023-04-01T05:04:03;24.50;;;22.48;;
22046;SDS011;11187;49.412;20.956;2023-04-01T05:06:36;23.88;;;21.77;;
22046;SDS011;11187;49.412;20.956;2023-04-01T05:09:24;22.20;;;20.20;;
22046;SDS011;11187;49.412;20.956;2023-04-01T05:11:57;20.98;;;19.20;;
22046;SDS011;11187;49.412;20.956;2023-04-01T05:14:44;23.17;;;21.08;;
22046;SDS011;11187;49.412;20.956;2023-04-01T05:17:17;25.08;;;22.55;;
22046;SDS011;11187;49.412;20.956;2023-04-01T05:20:12;23.08;;;21.00;;
22046;SDS011;11187;49.412;20.956;2023-04-01T05:22:45;21.77;;;19.88;;
22046;SDS011;11187;49.412;20.956;2023-04-01T05:25:32;23.23;;;20.92;;
22046;SDS011;11187;49.412;20.956;2023-04-01T05:28:08;25.08;;;21.60;;
22046;SDS011;11187;49.412;20.956;2023-04-01T05:30:57;24.02;;;21.52;;
22046;SDS011;11187;49.412;20.956;2023-04-01T05:33:32;22.13;;;19.98;;
22046;SDS011;11187;49.412;20.956;2023-04-01T05:36:26;22.95;;;20.98;;
22046;SDS011;11187;49.412;20.956;2023-04-01T05:38:59;23.55;;;21.45;;
22046;SDS011;11187;49.412;20.956;2023-04-01T05:41:53;23.95;;;21.67;;
22046;SDS011;11187;49.412;20.956;2023-04-01T05:44:26;22.30;;;19.98;;
22046;SDS011;11187;49.412;20.956;2023-04-01T05:47:20;21.65;;;19.42;;
22046;SDS011;11187;49.412;20.956;2023-04-01T05:50:14;22.73;;;20.20;;
22046;SDS011;11187;49.412;20.956;2023-04-01T05:52:50;22.58;;;20.17;;
22046;SDS011;11187;49.412;20.956;2023-04-01T05:55:37;22.92;;;20.52;;
22046;SDS011;11187;49.412;20.956;2023-04-01T05:58:10;23.20;;;19.92;;
22046;SDS011;11187;49.412;20.956;2023-04-01T06:01:01;21.70;;;19.38;;
22046;SDS011;11187;49.412;20.956;2023-04-01T06:03:41;21.35;;;19.38;;
22046;SDS011;11187;49.412;20.956;2023-04-01T06:06:29;22.15;;;20.15;;
22046;SDS011;11187;49.412;20.956;2023-04-01T06:09:15;20.85;;;18.95;;
22046;SDS011;11187;49.412;20.956;2023-04-01T06:29:43;18.20;;;16.30;;
22046;SDS011;11187;49.412;20.956;2023-04-01T06:35:24;19.25;;;17.38;;
22046;SDS011;11187;49.412;20.956;2023-04-01T06:46:53;30.63;;;23.02;;
22046;SDS011;11187;49.412;20.956;2023-04-01T06:49:48;33.42;;;21.95;;
22046;SDS011;11187;49.412;20.956;2023-04-01T06:52:26;26.02;;;19.98;;
22046;SDS011;11187;49.412;20.956;2023-04-01T06:55:20;20.70;;;18.30;;
22046;SDS011;11187;49.412;20.956;2023-04-01T06:57:57;18.58;;;16.75;;
22046;SDS011;11187;49.412;20.956;2023-04-01T07:00:47;18.13;;;16.30;;
22046;SDS011;11187;49.412;20.956;2023-04-01T07:03:31;18.00;;;16.35;;
22046;SDS011;11187;49.412;20.956;2023-04-01T07:06:31;19.38;;;17.65;;
22046;SDS011;11187;49.412;20.956;2023-04-01T07:09:10;16.15;;;14.73;;
22046;SDS011;11187;49.412;20.956;2023-04-01T07:12:05;16.90;;;15.43;;
22046;SDS011;11187;49.412;20.956;2023-04-01T07:14:46;17.70;;;16.17;;
22046;SDS011;11187;49.412;20.956;2023-04-01T07:17:36;16.10;;;14.80;;
22046;SDS011;11187;49.412;20.956;2023-04-01T07:26:05;14.77;;;13.43;;
22046;SDS011;11187;49.412;20.956;2023-04-01T07:29:11;12.55;;;11.75;;
22046;SDS011;11187;49.412;20.956;2023-04-01T07:31:59;12.57;;;11.73;;
22046;SDS011;11187;49.412;20.956;2023-04-01T07:35:07;13.27;;;12.45;;
22046;SDS011;11187;49.412;20.956;2023-04-01T07:44:02;14.55;;;13.38;;
22046;SDS011;11187;49.412;20.956;2023-04-01T07:59:30;16.25;;;15.23;;
22046;SDS011;11187;49.412;20.956;2023-04-01T08:05:58;17.52;;;16.30;;
22046;SDS011;11187;49.412;20.956;2023-04-01T08:09:01;17.77;;;16.60;;
22046;SDS011;11187;49.412;20.956;2023-04-01T08:23:37;13.07;;;12.13;;
22046;SDS011;11187;49.412;20.956;2023-04-01T08:29:07;16.70;;;15.50;;
22046;SDS011;11187;49.412;20.956;2023-04-01T08:31:44;14.77;;;13.88;;
22046;SDS011;11187;49.412;20.956;2023-04-01T08:34:38;16.13;;;15.02;;
22046;SDS011;11187;49.412;20.956;2023-04-01T08:37:14;17.80;;;16.60;;
22046;SDS011;11187;49.412;20.956;2023-04-01T08:56:11;14.70;;;13.73;;
22046;SDS011;11187;49.412;20.956;2023-04-01T09:14:22;15.73;;;14.73;;
22046;SDS011;11187;49.412;20.956;2023-04-01T09:23:43;15.15;;;14.25;;
22046;SDS011;11187;49.412;20.956;2023-04-01T09:36:07;15.10;;;14.20;;
22046;SDS011;11187;49.412;20.956;2023-04-01T09:45:30;15.35;;;14.45;;
22046;SDS011;11187;49.412;20.956;2023-04-01T10:00:07;14.18;;;13.23;;
22046;SDS011;11187;49.412;20.956;2023-04-01T10:10:06;13.27;;;12.48;;
22046;SDS011;11187;49.412;20.956;2023-04-01T10:54:44;13.82;;;12.95;;
22046;SDS011;11187;49.412;20.956;2023-04-01T11:04:14;14.02;;;12.93;;
22046;SDS011;11187;49.412;20.956;2023-04-01T11:26:09;14.07;;;13.27;;
22046;SDS011;11187;49.412;20.956;2023-04-01T11:29:15;13.43;;;12.40;;
22046;SDS011;11187;49.412;20.956;2023-04-01T11:32:07;12.93;;;12.02;;
22046;SDS011;11187;49.412;20.956;2023-04-01T11:35:21;13.50;;;12.48;;
22046;SDS011;11187;49.412;20.956;2023-04-01T11:44:34;14.68;;;13.77;;
22046;SDS011;11187;49.412;20.956;2023-04-01T11:47:44;13.13;;;12.02;;
22046;SDS011;11187;49.412;20.956;2023-04-01T11:57:13;14.77;;;13.52;;
22046;SDS011;11187;49.412;20.956;2023-04-01T12:12:18;12.82;;;12.02;;
22046;SDS011;11187;49.412;20.956;2023-04-01T12:21:32;13.55;;;12.55;;
22046;SDS011;11187;49.412;20.956;2023-04-01T12:27:59;12.93;;;12.13;;
22046;SDS011;11187;49.412;20.956;2023-04-01T12:30:57;14.07;;;13.27;;
22046;SDS011;11187;49.412;20.956;2023-04-01T12:33:59;13.85;;;12.95;;
22046;SDS011;11187;49.412;20.956;2023-04-01T12:43:28;14.93;;;13.73;;
22046;SDS011;11187;49.412;20.956;2023-04-01T12:49:47;13.15;;;12.20;;
22046;SDS011;11187;49.412;20.956;2023-04-01T12:55:49;13.23;;;12.32;;
22046;SDS011;11187;49.412;20.956;2023-04-01T13:07:53;13.20;;;12.07;;
22046;SDS011;11187;49.412;20.956;2023-04-01T13:16:38;12.88;;;11.98;;
22046;SDS011;11187;49.412;20.956;2023-04-01T13:23:28;13.60;;;12.50;;
22046;SDS011;11187;49.412;20.956;2023-04-01T13:39:15;10.70;;;9.85;;
22046;SDS011;11187;49.412;20.956;2023-04-01T13:45:22;12.20;;;11.40;;
22046;SDS011;11187;49.412;20.956;2023-04-01T14:00:55;11.95;;;11.15;;
22046;SDS011;11187;49.412;20.956;2023-04-01T14:13:14;10.55;;;9.85;;
22046;SDS011;11187;49.412;20.956;2023-04-01T14:16:20;10.70;;;10.10;;
22046;SDS011;11187;49.412;20.956;2023-04-01T14:22:31;10.55;;;9.90;;
22046;SDS011;11187;49.412;20.956;2023-04-01T14:31:33;11.73;;;10.93;;
22046;SDS011;11187;49.412;20.956;2023-04-01T14:37:31;12.40;;;11.40;;
22046;SDS011;11187;49.412;20.956;2023-04-01T14:50:03;12.02;;;11.02;;
22046;SDS011;11187;49.412;20.956;2023-04-01T15:08:23;12.30;;;11.50;;
22046;SDS011;11187;49.412;20.956;2023-04-01T15:14:19;12.85;;;11.73;;
22046;SDS011;11187;49.412;20.956;2023-04-01T15:23:34;11.52;;;10.50;;
22046;SDS011;11187;49.412;20.956;2023-04-01T15:32:58;10.57;;;9.88;;
22046;SDS011;11187;49.412;20.956;2023-04-01T15:57:04;11.10;;;10.38;;
22046;SDS011;11187;49.412;20.956;2023-04-01T16:02:34;10.90;;;10.00;;
22046;SDS011;11187;49.412;20.956;2023-04-01T16:23:50;10.45;;;9.75;;
22046;SDS011;11187;49.412;20.956;2023-04-01T16:26:29;10.25;;;9.38;;
22046;SDS011;11187;49.412;20.956;2023-04-01T16:32:41;11.30;;;10.40;;
22046;SDS011;11187;49.412;20.956;2023-04-01T16:45:07;11.85;;;10.90;;
22046;SDS011;11187;49.412;20.956;2023-04-01T16:48:13;12.23;;;11.13;;
22046;SDS011;11187;49.412;20.956;2023-04-01T16:57:25;11.15;;;10.27;;
22046;SDS011;11187;49.412;20.956;2023-04-01T17:03:14;10.38;;;9.57;;
22046;SDS011;11187;49.412;20.956;2023-04-01T17:35:02;12.63;;;11.52;;
22046;SDS011;11187;49.412;20.956;2023-04-01T17:37:56;13.38;;;12.10;;
22046;SDS011;11187;49.412;20.956;2023-04-01T17:43:49;21.92;;;17.60;;
22046;SDS011;11187;49.412;20.956;2023-04-01T17:57:19;21.42;;;16.42;;
22046;SDS011;11187;49.412;20.956;2023-04-01T17:59:37;18.85;;;16.73;;
22046;SDS011;11187;49.412;20.956;2023-04-01T18:05:51;17.58;;;15.98;;
22046;SDS011;11187;49.412;20.956;2023-04-01T18:08:40;19.08;;;16.73;;
22046;SDS011;11187;49.412;20.956;2023-04-01T18:17:43;17.58;;;15.77;;
22046;SDS011;11187;49.412;20.956;2023-04-01T18:23:51;18.30;;;16.63;;
22046;SDS011;11187;49.412;20.956;2023-04-01T18:26:50;20.10;;;17.02;;
22046;SDS011;11187;49.412;20.956;2023-04-01T18:29:40;18.60;;;15.40;;
22046;SDS011;11187;49.412;20.956;2023-04-01T18:38:35;17.75;;;16.05;;
22046;SDS011;11187;49.412;20.956;2023-04-01T18:44:47;20.65;;;17.10;;
22046;SDS011;11187;49.412;20.956;2023-04-01T18:50:56;21.63;;;16.27;;
22046;SDS011;11187;49.412;20.956;2023-04-01T18:54:05;20.77;;;15.80;;
22046;SDS011;11187;49.412;20.956;2023-04-01T18:57:12;27.23;;;18.67;;
22046;SDS011;11187;49.412;20.956;2023-04-01T18:59:55;32.67;;;19.73;;
22046;SDS011;11187;49.412;20.956;2023-04-01T19:02:57;25.15;;;19.20;;
22046;SDS011;11187;49.412;20.956;2023-04-01T19:05:36;30.67;;;21.27;;
22046;SDS011;11187;49.412;20.956;2023-04-01T19:08:38;28.75;;;20.02;;
22046;SDS011;11187;49.412;20.956;2023-04-01T19:11:36;23.95;;;18.67;;
22046;SDS011;11187;49.412;20.956;2023-04-01T19:26:00;19.88;;;17.77;;
22046;SDS011;11187;49.412;20.956;2023-04-01T19:28:57;16.48;;;14.82;;
22046;SDS011;11187;49.412;20.956;2023-04-01T19:43:54;16.77;;;14.85;;
22046;SDS011;11187;49.412;20.956;2023-04-01T19:46:58;16.38;;;14.70;;
22046;SDS011;11187;49.412;20.956;2023-04-01T19:50:06;14.52;;;13.23;;
22046;SDS011;11187;49.412;20.956;2023-04-01T19:53:38;16.15;;;14.43;;
22046;SDS011;11187;49.412;20.956;2023-04-01T19:56:23;16.05;;;14.57;;
22046;SDS011;11187;49.412;20.956;2023-04-01T20:02:39;19.48;;;17.48;;
22046;SDS011;11187;49.412;20.956;2023-04-01T20:08:26;15.88;;;14.48;;
22046;SDS011;11187;49.412;20.956;2023-04-01T20:11:25;15.45;;;14.13;;
22046;SDS011;11187;49.412;20.956;2023-04-01T20:20:34;16.98;;;15.38;;
22046;SDS011;11187;49.412;20.956;2023-04-01T20:26:21;14.50;;;12.40;;
22046;SDS011;11187;49.412;20.956;2023-04-01T20:29:13;13.93;;;12.77;;
22046;SDS011;11187;49.412;20.956;2023-04-01T20:40:42;15.93;;;14.63;;
22046;SDS011;11187;49.412;20.956;2023-04-01T20:53:16;15.75;;;14.65;;
22046;SDS011;11187;49.412;20.956;2023-04-01T21:02:32;22.17;;;20.50;;
22046;SDS011;11187;49.412;20.956;2023-04-01T21:10:56;18.33;;;16.65;;
22046;SDS011;11187;49.412;20.956;2023-04-01T21:14:12;17.13;;;15.75;;
22046;SDS011;11187;49.412;20.956;2023-04-01T21:16:51;17.95;;;16.45;;
22046;SDS011;11187;49.412;20.956;2023-04-01T21:31:52;16.92;;;15.73;;
22046;SDS011;11187;49.412;20.956;2023-04-01T21:34:52;17.15;;;15.82;;
22046;SDS011;11187;49.412;20.956;2023-04-01T22:14:36;17.13;;;16.02;;
22046;SDS011;11187;49.412;20.956;2023-04-01T22:17:38;16.92;;;15.93;;
22046;SDS011;11187;49.412;20.956;2023-04-01T22:20:59;17.77;;;16.60;;
22046;SDS011;11187;49.412;20.956;2023-04-01T22:23:56;18.15;;;17.05;;
22046;SDS011;11187;49.412;20.956;2023-04-01T22:29:29;17.08;;;16.05;;
22046;SDS011;11187;49.412;20.956;2023-04-01T22:32:34;16.92;;;15.93;;
22046;SDS011;11187;49.412;20.956;2023-04-01T22:51:21;27.88;;;25.25;;
22046;SDS011;11187;49.412;20.956;2023-04-01T22:57:05;28.50;;;25.63;;
22046;SDS011;11187;49.412;20.956;2023-04-01T22:59:48;25.52;;;22.98;;
22046;SDS011;11187;49.412;20.956;2023-04-01T23:05:55;29.27;;;26.08;;
22046;SDS011;11187;49.412;20.956;2023-04-01T23:11:46;28.40;;;25.67;;
22046;SDS011;11187;49.412;20.956;2023-04-01T23:15:04;25.73;;;23.42;;
22046;SDS011;11187;49.412;20.956;2023-04-01T23:17:49;25.95;;;23.42;;
22046;SDS011;11187;49.412;20.956;2023-04-01T23:21:18;26.20;;;23.67;;
22046;SDS011;11187;49.412;20.956;2023-04-01T23:24:16;26.17;;;23.50;;
22046;SDS011;11187;49.412;20.956;2023-04-01T23:27:38;26.58;;;24.08;;
22046;SDS011;11187;49.412;20.956;2023-04-01T23:33:45;25.98;;;23.63;;
22046;SDS011;11187;49.412;20.956;2023-04-01T23:36:25;27.15;;;24.50;;
22046;SDS011;11187;49.412;20.956;2023-04-01T23:41:56;27.25;;;24.90;;
22046;SDS011;11187;49.412;20.956;2023-04-01T23:44:58;26.48;;;24.08;;
22046;SDS011;11187;49.412;20.956;2023-04-01T23:47:58;26.00;;;23.40;;
22046;SDS011;11187;49.412;20.956;2023-04-01T23:50:52;25.27;;;22.88;;
22046;SDS011;11187;49.412;20.956;2023-04-01T23:53:26;24.13;;;22.05;;
22046;SDS011;11187;49.412;20.956;2023-04-01T23:56:17;24.73;;;22.30;;
22046;SDS011;11187;49.412;20.956;2023-04-01T23:58:51;27.25;;;24.65;;
